Time;durP1;ratioP1;P1;durP2;ratioP2;P2;SDS_P1;SDS_P2;PMS_P1;PMS_P2;Temp;Humidity;BMP_temperature;BMP_pressure;BME280_temperature;BME280_humidity;BME280_pressure;Samples;Min_cycle;Max_cycle;Signal;HPM_P1;HPM_P2
2022/03/03 00:00:38;;;;;;;21.27;11.65;;;;;;;5.92;42.62;100374.47;5111684;28;20047;-61
2022/03/03 00:03:05;;;;;;;17.75;11.13;;;;;;;5.95;42.63;100370.94;5111879;28;20492;-61
2022/03/03 00:05:32;;;;;;;22.05;11.45;;;;;;;5.97;42.80;100369.13;5111788;28;20043;-61
2022/03/03 00:07:58;;;;;;;21.92;11.10;;;;;;;5.98;43.05;100374.31;5111952;28;20561;-63
2022/03/03 00:10:25;;;;;;;20.63;11.63;;;;;;;5.99;42.75;100370.78;5110687;28;20437;-62
2022/03/03 00:12:51;;;;;;;20.42;11.90;;;;;;;6.00;42.44;100375.13;5111822;28;20101;-63
2022/03/03 00:15:18;;;;;;;22.63;11.85;;;;;;;6.00;42.87;100372.53;5111797;27;20056;-63
2022/03/03 00:17:45;;;;;;;18.05;11.00;;;;;;;6.01;42.63;100378.59;5111670;28;20104;-61
2022/03/03 00:20:11;;;;;;;18.48;10.90;;;;;;;6.00;42.68;100372.53;5111419;28;20412;-61
2022/03/03 00:22:38;;;;;;;18.00;11.40;;;;;;;6.00;42.53;100376.88;5111323;28;20043;-62
2022/03/03 00:25:05;;;;;;;17.08;10.63;;;;;;;6.01;42.85;100373.34;5110757;28;20564;-63
2022/03/03 00:27:32;;;;;;;24.85;11.38;;;;;;;5.99;42.77;100362.94;5111555;28;20488;-63
2022/03/03 00:29:58;;;;;;;20.77;11.80;;;;;;;6.00;42.65;100361.19;5111331;28;20043;-62
2022/03/03 00:32:25;;;;;;;18.30;10.73;;;;;;;6.00;42.70;100366.41;5111090;28;20040;-62
2022/03/03 00:34:51;;;;;;;19.15;11.15;;;;;;;5.99;42.63;100362.09;5110403;28;20083;-61
2022/03/03 00:37:18;;;;;;;18.42;10.88;;;;;;;5.98;42.85;100352.56;5111595;28;20084;-63
2022/03/03 00:39:45;;;;;;;21.10;11.93;;;;;;;5.97;42.87;100346.47;5111167;28;20088;-63
2022/03/03 00:42:11;;;;;;;19.13;11.43;;;;;;;5.96;42.69;100343.88;5110874;28;20059;-62
2022/03/03 00:44:38;;;;;;;19.63;11.43;;;;;;;5.95;42.87;100352.63;5111184;28;20100;-61
2022/03/03 00:47:05;;;;;;;20.75;12.00;;;;;;;5.93;42.77;100346.56;5111172;28;20044;-62
2022/03/03 00:49:31;;;;;;;17.10;11.32;;;;;;;5.92;43.22;100343.13;5111080;28;20059;-62
2022/03/03 00:51:58;;;;;;;22.48;12.00;;;;;;;5.90;42.96;100337.06;5111404;28;20124;-61
2022/03/03 00:54:25;;;;;;;23.52;11.00;;;;;;;5.90;43.02;100338.84;5110774;28;20077;-63
2022/03/03 00:56:51;;;;;;;22.58;12.48;;;;;;;5.89;43.05;100340.59;5111231;28;20052;-62
2022/03/03 00:59:18;;;;;;;21.00;11.93;;;;;;;5.86;43.29;100341.53;5110791;28;20101;-62
2022/03/03 01:01:44;;;;;;;18.35;11.23;;;;;;;5.87;43.23;100329.34;5111322;28;20060;-62
2022/03/03 01:04:11;;;;;;;21.15;12.20;;;;;;;5.88;43.26;100331.06;5110951;28;20060;-62
2022/03/03 01:06:38;;;;;;;20.27;11.25;;;;;;;5.89;42.95;100339.72;5111027;28;20050;-62
2022/03/03 01:09:05;;;;;;;18.48;11.05;;;;;;;5.89;43.29;100324.03;5110848;28;20504;-62
2022/03/03 01:11:32;;;;;;;19.70;11.55;;;;;;;5.88;42.98;100317.97;5110586;28;20515;-62
2022/03/03 01:13:58;;;;;;;21.65;11.50;;;;;;;5.87;42.91;100319.72;5110011;28;20092;-62
2022/03/03 01:16:25;;;;;;;18.27;11.40;;;;;;;5.87;42.95;100324.94;5111184;28;20048;-63
2022/03/03 01:18:51;;;;;;;23.15;10.93;;;;;;;5.88;43.02;100317.97;5110755;28;20051;-62
2022/03/03 01:21:18;;;;;;;19.20;10.90;;;;;;;5.89;43.13;100317.06;5110583;28;20126;-62
2022/03/03 01:23:45;;;;;;;16.60;10.15;;;;;;;5.90;42.71;100317.94;5110610;28;20063;-61
2022/03/03 01:26:11;;;;;;;22.52;10.88;;;;;;;5.89;43.01;100309.25;5109483;28;20052;-61
2022/03/03 01:28:38;;;;;;;19.30;10.80;;;;;;;5.90;42.91;100315.34;5110844;28;20438;-61
2022/03/03 01:31:04;;;;;;;17.38;10.27;;;;;;;5.90;43.02;100312.72;5111456;27;20712;-62
2022/03/03 01:33:31;;;;;;;19.83;10.90;;;;;;;5.90;43.04;100312.72;5110682;28;20121;-62
2022/03/03 01:35:58;;;;;;;19.50;11.02;;;;;;;5.90;43.09;100315.34;5112702;28;20081;-64
2022/03/03 01:38:24;;;;;;;15.98;10.15;;;;;;;5.91;42.93;100314.44;5115016;28;20100;-62
2022/03/03 01:40:51;;;;;;;18.63;11.23;;;;;;;5.89;43.08;100314.47;5114808;28;20552;-62
2022/03/03 01:43:17;;;;;;;15.77;9.82;;;;;;;5.87;43.08;100308.44;5114534;28;20067;-61
2022/03/03 01:45:45;;;;;;;18.30;10.07;;;;;;;5.87;43.06;100309.28;5114733;28;20077;-62
2022/03/03 01:48:11;;;;;;;17.45;10.35;;;;;;;5.86;42.98;100309.31;5114732;28;20435;-63
2022/03/03 01:50:38;;;;;;;18.13;10.80;;;;;;;5.83;43.30;100305.03;5114278;28;20580;-62
2022/03/03 01:53:05;;;;;;;21.60;12.27;;;;;;;5.82;43.22;100310.31;5114251;28;20047;-62
2022/03/03 01:55:32;;;;;;;23.70;11.88;;;;;;;5.78;43.07;100303.44;5114413;28;20051;-62
2022/03/03 01:58:02;;;;;;;21.05;12.10;;;;;;;5.74;43.23;100300.94;5113427;28;20104;-62
2022/03/03 02:00:29;;;;;;;21.42;11.43;;;;;;;5.74;43.19;100302.69;5113188;28;20059;-62
2022/03/03 02:02:56;;;;;;;22.65;12.07;;;;;;;5.72;43.19;100300.13;5112785;28;20056;-62
2022/03/03 02:05:23;;;;;;;22.25;11.70;;;;;;;5.70;43.25;100295.84;5114124;28;20542;-63
2022/03/03 02:07:49;;;;;;;17.95;10.77;;;;;;;5.69;43.33;100288.91;5114242;28;20055;-62
2022/03/03 02:10:16;;;;;;;21.17;11.32;;;;;;;5.67;43.19;100282.84;5112651;28;20084;-61
2022/03/03 02:12:42;;;;;;;19.92;11.25;;;;;;;5.67;43.32;100293.31;5113728;28;20052;-63
2022/03/03 02:15:16;;;;;;;18.13;10.95;;;;;;;5.63;43.31;100295.16;5112860;28;20055;-62
2022/03/03 02:17:43;;;;;;;20.52;11.95;;;;;;;5.64;43.32;100293.41;5113055;28;20051;-62
2022/03/03 02:20:29;;;;;;;20.10;11.70;;;;;;;5.58;43.34;100286.59;5113869;28;20453;-63
2022/03/03 02:22:58;;;;;;;19.73;10.85;;;;;;;5.60;43.49;100284.78;5113855;27;20458;-62
2022/03/03 02:25:26;;;;;;;19.40;11.25;;;;;;;5.55;43.37;100282.31;5114096;28;20105;-63
2022/03/03 02:27:53;;;;;;;18.80;10.82;;;;;;;5.52;43.42;100276.31;5112703;28;20124;-64
2022/03/03 02:30:19;;;;;;;20.65;11.52;;;;;;;5.48;43.64;100272.94;5113758;28;20060;-62
2022/03/03 02:32:47;;;;;;;22.25;11.25;;;;;;;5.45;43.58;100268.66;5113321;28;20491;-62
2022/03/03 02:35:14;;;;;;;18.73;11.27;;;;;;;5.45;43.64;100270.38;5113677;28;20089;-62
2022/03/03 02:37:43;;;;;;;20.70;11.90;;;;;;;5.41;43.75;100268.75;5113649;28;20536;-63
2022/03/03 02:40:20;;;;;;;17.83;11.38;;;;;;;5.38;43.75;100268.88;5112322;28;20047;-61
2022/03/03 02:42:48;;;;;;;20.60;11.45;;;;;;;5.38;43.77;100264.47;5111862;28;20043;-62
2022/03/03 02:45:15;;;;;;;18.75;11.30;;;;;;;5.36;43.60;100274.13;5113548;28;20130;-62
2022/03/03 02:47:43;;;;;;;19.52;11.18;;;;;;;5.34;43.76;100273.28;5112488;28;20063;-62
2022/03/03 02:50:10;;;;;;;20.25;11.45;;;;;;;5.34;43.77;100268.06;5113094;28;20105;-62
2022/03/03 02:52:38;;;;;;;19.92;10.60;;;;;;;5.33;43.87;100266.38;5111792;28;20096;-61
2022/03/03 02:55:06;;;;;;;19.90;11.27;;;;;;;5.31;43.82;100262.97;5113405;28;20446;-64
2022/03/03 03:00:18;;;;;;;20.27;11.32;;;;;;;5.28;43.94;100250.84;5113159;28;20055;-61
2022/03/03 03:02:45;;;;;;;20.70;11.32;;;;;;;5.27;43.69;100235.22;5113318;28;20047;-62
2022/03/03 03:05:12;;;;;;;18.83;11.02;;;;;;;5.26;44.03;100229.13;5113242;28;20058;-62
2022/03/03 03:07:38;;;;;;;24.02;10.98;;;;;;;5.26;44.04;100236.97;5113138;28;20047;-62
2022/03/03 03:10:06;;;;;;;19.20;11.27;;;;;;;5.27;44.07;100237.84;5112851;28;20540;-62
2022/03/03 03:12:33;;;;;;;19.15;10.50;;;;;;;5.26;43.93;100230.88;5111529;28;20570;-63
2022/03/03 03:14:59;;;;;;;22.33;10.80;;;;;;;5.26;43.98;100226.53;5111760;28;20051;-62
2022/03/03 03:17:27;;;;;;;20.73;10.50;;;;;;;5.26;44.01;100226.53;5112996;28;20122;-61
2022/03/03 03:19:53;;;;;;;18.38;10.55;;;;;;;5.26;43.90;100216.09;5112720;28;20737;-62
2022/03/03 03:22:20;;;;;;;22.42;11.10;;;;;;;5.27;44.00;100222.19;5112668;28;20077;-63
2022/03/03 03:24:46;;;;;;;18.20;10.38;;;;;;;5.27;44.29;100219.56;5112550;28;20044;-62
2022/03/03 03:27:14;;;;;;;19.23;10.50;;;;;;;5.28;44.46;100219.53;5111481;28;20092;-62
2022/03/03 03:29:41;;;;;;;17.63;10.77;;;;;;;5.30;44.22;100230.75;5112855;28;20381;-62
2022/03/03 03:32:07;;;;;;;18.27;11.07;;;;;;;5.30;43.89;100233.38;5112377;28;20047;-62
2022/03/03 03:34:34;;;;;;;20.30;11.10;;;;;;;5.29;44.08;100231.66;5112335;28;20044;-63
2022/03/03 03:37:00;;;;;;;20.48;11.45;;;;;;;5.27;44.15;100235.22;5112431;28;20105;-62
2022/03/03 03:39:29;;;;;;;19.25;11.20;;;;;;;5.22;44.23;100236.19;5112334;28;20453;-62
2022/03/03 03:41:55;;;;;;;19.02;11.00;;;;;;;5.16;44.19;100232.91;5112264;28;20051;-63
2022/03/03 03:44:22;;;;;;;20.60;12.02;;;;;;;5.08;44.39;100228.75;5112345;28;20077;-61
2022/03/03 03:46:49;;;;;;;21.27;11.70;;;;;;;5.00;44.63;100225.47;5112324;28;20048;-62
2022/03/03 03:49:15;;;;;;;20.90;13.10;;;;;;;4.93;44.67;100235.22;5110962;28;20108;-61
2022/03/03 03:51:42;;;;;;;21.23;11.85;;;;;;;4.87;44.71;100239.72;5112239;28;20081;-62
2022/03/03 03:54:08;;;;;;;22.75;12.48;;;;;;;4.80;44.59;100244.25;5111745;28;20077;-63
2022/03/03 03:56:35;;;;;;;20.98;11.95;;;;;;;4.72;44.83;100239.22;5111964;28;20051;-63
2022/03/03 03:59:02;;;;;;;23.08;13.30;;;;;;;4.68;45.02;100248.03;5112136;28;20465;-62
2022/03/03 04:01:31;;;;;;;22.90;13.45;;;;;;;4.61;44.99;100244.72;5110905;28;20055;-62
2022/03/03 04:03:58;;;;;;;22.30;12.38;;;;;;;4.56;45.30;100249.16;5111551;28;20055;-62
2022/03/03 04:06:24;;;;;;;23.55;13.32;;;;;;;4.50;45.16;100247.56;5111962;28;20105;-61
2022/03/03 04:08:51;;;;;;;29.55;14.50;;;;;;;4.46;45.41;100250.28;5110606;28;20500;-62
2022/03/03 04:11:18;;;;;;;22.90;12.98;;;;;;;4.39;45.59;100250.44;5111536;28;20507;-62
2022/03/03 04:13:44;;;;;;;21.52;12.50;;;;;;;4.33;45.52;100258.38;5111448;28;20040;-62
2022/03/03 04:16:11;;;;;;;23.30;13.57;;;;;;;4.27;45.50;100256.78;5111847;28;20104;-62
2022/03/03 04:18:38;;;;;;;23.10;12.95;;;;;;;4.22;45.93;100248.19;5111684;28;20487;-62
2022/03/03 04:21:05;;;;;;;27.73;14.70;;;;;;;4.17;45.86;100247.47;5111330;28;20112;-62
2022/03/03 04:23:32;;;;;;;25.73;13.55;;;;;;;4.13;46.28;100246.69;5111298;28;20051;-63
2022/03/03 04:25:58;;;;;;;22.73;12.93;;;;;;;4.11;46.19;100248.44;5111745;28;20087;-61
2022/03/03 04:28:25;;;;;;;22.95;13.63;;;;;;;4.08;45.79;100248.53;5111473;28;20664;-61
2022/03/03 04:30:51;;;;;;;22.65;12.40;;;;;;;4.07;46.38;100240.75;5111229;28;20100;-62
2022/03/03 04:33:18;;;;;;;22.05;12.43;;;;;;;4.07;46.47;100244.19;5110878;28;20093;-62
2022/03/03 04:35:50;;;;;;;20.13;11.73;;;;;;;4.04;45.96;100242.50;5111523;28;20047;-62
2022/03/03 04:38:16;;;;;;;21.90;12.20;;;;;;;4.03;46.38;100242.53;5111312;28;20051;-61
2022/03/03 04:40:43;;;;;;;23.40;12.88;;;;;;;4.02;46.38;100240.84;5111310;28;20087;-61
2022/03/03 04:43:10;;;;;;;21.85;12.40;;;;;;;3.99;46.34;100239.16;5111055;28;20055;-62
2022/03/03 04:45:36;;;;;;;20.80;12.35;;;;;;;3.99;46.76;100241.75;5089575;28;20039;-61
2022/03/03 04:48:03;;;;;;;24.58;12.85;;;;;;;3.99;46.52;100233.06;5090779;28;20492;-62
2022/03/03 04:50:30;;;;;;;22.15;11.85;;;;;;;3.98;46.22;100234.84;5089294;28;20043;-61
2022/03/03 04:52:57;;;;;;;22.60;12.65;;;;;;;3.96;46.07;100231.41;5090857;28;20103;-61
2022/03/03 04:55:24;;;;;;;26.60;12.57;;;;;;;3.95;46.09;100237.50;5109586;28;20047;-63
2022/03/03 04:57:50;;;;;;;22.58;12.80;;;;;;;3.93;46.24;100222.81;5111295;28;20125;-61
2022/03/03 05:00:17;;;;;;;21.38;12.38;;;;;;;3.90;46.26;100231.56;5111255;28;20104;-61
2022/03/03 05:02:44;;;;;;;23.05;12.95;;;;;;;3.88;46.89;100225.50;5110872;28;20051;-63
2022/03/03 05:05:11;;;;;;;24.10;13.63;;;;;;;3.87;46.63;100218.59;5110765;28;20058;-60
2022/03/03 05:07:37;;;;;;;21.08;11.98;;;;;;;3.87;46.80;100223.78;5110955;28;20492;-61
2022/03/03 05:10:05;;;;;;;18.38;11.38;;;;;;;3.86;46.70;100214.28;5110702;28;20044;-63
2022/03/03 05:12:32;;;;;;;22.17;12.02;;;;;;;3.86;46.46;100219.47;5109682;28;20084;-62
2022/03/03 05:14:58;;;;;;;24.95;12.80;;;;;;;3.86;46.95;100212.53;5109348;28;20104;-61
2022/03/03 05:17:25;;;;;;;22.17;11.85;;;;;;;3.86;46.76;100206.47;5110761;28;20052;-62
2022/03/03 05:19:52;;;;;;;22.05;13.00;;;;;;;3.86;47.00;100202.13;5110943;28;20642;-61
2022/03/03 05:22:18;;;;;;;22.02;12.50;;;;;;;3.87;46.68;100213.38;5110838;28;20047;-61
2022/03/03 05:24:49;;;;;;;23.98;13.85;;;;;;;3.89;46.60;100209.00;5110487;28;20047;-62
2022/03/03 05:27:16;;;;;;;22.17;12.95;;;;;;;3.87;46.69;100203.81;5109850;28;20044;-61
2022/03/03 05:29:43;;;;;;;20.67;13.35;;;;;;;3.87;46.90;100196.00;5110894;28;20055;-61
2022/03/03 05:32:09;;;;;;;21.90;12.70;;;;;;;3.85;47.09;100189.13;5110762;28;20047;-61
2022/03/03 05:34:36;;;;;;;23.77;13.07;;;;;;;3.84;47.15;100193.47;5110662;28;20051;-61
2022/03/03 05:37:05;;;;;;;23.90;13.32;;;;;;;3.82;47.06;100195.25;5110949;28;20052;-62
2022/03/03 05:39:37;;;;;;;27.50;13.75;;;;;;;3.82;47.02;100186.59;5109296;28;20058;-62
2022/03/03 05:42:04;;;;;;;26.73;12.93;;;;;;;3.82;46.74;100187.44;5109440;28;20064;-61
2022/03/03 05:44:31;;;;;;;20.67;12.65;;;;;;;3.82;46.90;100189.19;5108960;28;20518;-64
2022/03/03 05:46:59;;;;;;;24.05;12.30;;;;;;;3.83;47.21;100193.50;5110855;27;20400;-62
2022/03/03 05:49:26;;;;;;;21.80;12.18;;;;;;;3.84;47.10;100198.69;5110419;28;20108;-62
2022/03/03 05:51:52;;;;;;;23.25;12.73;;;;;;;3.86;47.28;100207.31;5109408;28;20105;-62
2022/03/03 05:54:19;;;;;;;21.15;11.75;;;;;;;3.87;47.27;100206.44;5110142;28;20407;-63
2022/03/03 05:56:48;;;;;;;24.80;13.43;;;;;;;3.86;46.77;100206.47;5110420;28;20560;-62
2022/03/03 05:59:15;;;;;;;20.13;12.13;;;;;;;3.85;46.80;100205.59;5108778;28;20051;-64
2022/03/03 06:01:42;;;;;;;21.63;12.63;;;;;;;3.84;47.24;100208.22;5110558;28;20039;-62
2022/03/03 06:04:13;;;;;;;23.35;13.35;;;;;;;3.80;47.49;100210.06;5110329;28;20048;-63
2022/03/03 06:06:49;;;;;;;22.52;12.68;;;;;;;3.77;47.28;100207.50;5109150;28;20106;-62
2022/03/03 06:09:18;;;;;;;27.38;13.15;;;;;;;3.75;47.04;100217.09;5108953;28;20047;-62
2022/03/03 06:12:14;;;;;;;21.77;12.40;;;;;;;3.71;47.30;100220.66;5109926;28;20047;-61
2022/03/03 06:14:46;;;;;;;23.13;13.20;;;;;;;3.69;47.63;100220.69;5106983;28;20039;-62
2022/03/03 06:17:13;;;;;;;22.67;14.07;;;;;;;3.66;47.39;100223.34;5109182;28;20056;-62
2022/03/03 06:19:43;;;;;;;21.42;12.75;;;;;;;3.61;47.38;100228.66;5109781;28;20093;-60
2022/03/03 06:22:13;;;;;;;22.48;12.43;;;;;;;3.58;47.25;100223.53;5110777;28;20388;-61
2022/03/03 06:24:39;;;;;;;23.17;13.35;;;;;;;3.53;47.33;100230.56;5112649;28;20113;-60
2022/03/03 06:27:07;;;;;;;24.17;14.30;;;;;;;3.49;47.59;100228.91;5114101;28;20051;-61
2022/03/03 06:29:34;;;;;;;21.02;13.70;;;;;;;3.43;47.27;100235.09;5112533;28;20443;-65
2022/03/03 06:32:02;;;;;;;25.38;14.02;;;;;;;3.39;47.71;100236.03;5113906;28;20056;-62
2022/03/03 06:34:28;;;;;;;24.58;13.82;;;;;;;3.36;47.77;100238.69;5112154;28;20435;-61
2022/03/03 06:36:55;;;;;;;26.58;13.35;;;;;;;3.32;48.20;100229.25;5113811;28;20476;-61
2022/03/03 06:39:22;;;;;;;25.13;14.15;;;;;;;3.30;48.09;100236.22;5113693;28;20047;-63
2022/03/03 06:41:49;;;;;;;25.35;13.90;;;;;;;3.28;48.03;100246.66;5113208;28;20458;-62
2022/03/03 06:44:15;;;;;;;22.73;14.02;;;;;;;3.28;48.13;100245.81;5113281;28;20104;-61
2022/03/03 06:46:42;;;;;;;27.40;14.70;;;;;;;3.26;48.56;100238.88;5113681;28;20051;-62
2022/03/03 06:49:12;;;;;;;23.48;14.38;;;;;;;3.26;48.10;100233.66;5113455;28;20056;-67
2022/03/03 06:51:43;;;;;;;21.73;13.20;;;;;;;3.25;48.84;100237.16;5113592;28;20043;-63
2022/03/03 06:54:16;;;;;;;23.35;14.23;;;;;;;3.27;48.58;100247.53;5113209;28;20112;-62
2022/03/03 06:56:53;;;;;;;21.95;13.65;;;;;;;3.25;48.95;100242.38;5113911;28;20051;-61
2022/03/03 06:59:23;;;;;;;24.00;13.85;;;;;;;3.29;48.86;100237.13;5113021;28;20484;-62
2022/03/03 07:01:50;;;;;;;24.23;13.85;;;;;;;3.32;48.49;100244.88;5113429;28;20096;-61
2022/03/03 07:04:19;;;;;;;23.30;13.82;;;;;;;3.34;49.04;100241.34;5111740;28;20055;-62
2022/03/03 07:06:47;;;;;;;24.00;13.65;;;;;;;3.37;48.96;100243.88;5112553;28;20188;-62
2022/03/03 07:09:14;;;;;;;20.70;13.45;;;;;;;3.41;48.70;100243.81;5111327;28;20063;-60
2022/03/03 07:11:43;;;;;;;21.50;13.07;;;;;;;3.45;49.16;100243.75;5112239;28;20059;-62
2022/03/03 07:14:10;;;;;;;25.90;13.98;;;;;;;3.50;48.88;100248.84;5111219;28;20047;-61
2022/03/03 07:16:43;;;;;;;25.65;14.32;;;;;;;3.53;49.39;100251.41;5113342;28;20104;-63
2022/03/03 07:19:45;;;;;;;24.10;13.75;;;;;;;3.57;48.90;100257.38;5111527;28;20047;-62
2022/03/03 07:22:38;;;;;;;22.02;13.00;;;;;;;3.63;48.76;100244.25;5107267;28;20096;-61
2022/03/03 07:25:15;;;;;;;27.55;13.48;;;;;;;3.68;48.90;100242.41;5111779;28;20055;-61
2022/03/03 07:27:44;;;;;;;24.48;15.07;;;;;;;3.73;48.78;100243.19;5112993;27;20116;-62
2022/03/03 07:30:15;;;;;;;24.17;14.20;;;;;;;3.77;48.82;100242.22;5110854;28;20048;-60
2022/03/03 07:33:06;;;;;;;23.77;13.95;;;;;;;3.80;48.94;100243.03;5112516;28;20044;-63
2022/03/03 07:35:35;;;;;;;24.20;12.98;;;;;;;3.87;48.81;100245.50;5111442;28;20461;-62
2022/03/03 07:38:13;;;;;;;24.05;14.20;;;;;;;3.88;49.19;100246.34;5112609;28;20571;-62
2022/03/03 07:40:44;;;;;;;25.02;14.13;;;;;;;3.94;48.65;100240.16;5111515;28;20055;-61
2022/03/03 07:43:12;;;;;;;21.77;13.73;;;;;;;3.97;48.77;100240.09;5111452;28;20043;-61
2022/03/03 07:45:40;;;;;;;24.10;14.18;;;;;;;4.00;48.72;100245.25;5111354;28;20060;-61
2022/03/03 07:48:07;;;;;;;22.90;13.25;;;;;;;4.03;48.54;100243.41;5110651;28;20043;-62
2022/03/03 07:50:39;;;;;;;24.25;12.82;;;;;;;4.07;48.55;100245.97;5112220;28;20469;-65
2022/03/03 07:53:10;;;;;;;23.23;13.70;;;;;;;4.11;48.64;100247.59;5110920;28;20514;-62
2022/03/03 07:55:42;;;;;;;24.40;14.57;;;;;;;4.13;48.93;100246.69;5111360;28;20381;-62
2022/03/03 07:58:13;;;;;;;22.88;13.75;;;;;;;4.19;48.71;100253.50;5110616;28;20075;-63
2022/03/03 08:00:46;;;;;;;24.95;13.48;;;;;;;4.23;48.80;100249.06;5110721;28;20120;-64
2022/03/03 08:03:17;;;;;;;25.02;14.63;;;;;;;4.27;48.62;100248.13;5111181;28;20071;-62
2022/03/03 08:05:47;;;;;;;22.20;14.25;;;;;;;4.32;48.92;100242.78;5110937;28;20149;-64
2022/03/03 08:08:17;;;;;;;21.20;13.65;;;;;;;4.37;49.12;100238.34;5110588;28;20118;-62
2022/03/03 08:10:45;;;;;;;20.90;12.75;;;;;;;4.44;48.58;100234.66;5110367;28;20048;-61
2022/03/03 08:13:15;;;;;;;22.23;13.10;;;;;;;4.52;48.91;100231.91;5110824;28;20047;-62
2022/03/03 08:15:42;;;;;;;22.80;12.98;;;;;;;4.59;48.90;100230.84;5110827;28;20052;-61
2022/03/03 08:18:10;;;;;;;23.88;13.38;;;;;;;4.67;48.65;100231.50;5111548;28;20040;-62
2022/03/03 08:20:38;;;;;;;22.35;13.88;;;;;;;4.76;48.66;100237.41;5110354;28;20062;-62
2022/03/03 08:23:07;;;;;;;20.75;13.32;;;;;;;4.83;48.74;100244.19;5110440;28;20055;-62
2022/03/03 08:25:35;;;;;;;23.60;13.27;;;;;;;4.92;48.80;100245.69;5112261;28;20051;-61
2022/03/03 08:28:03;;;;;;;24.83;13.70;;;;;;;5.00;48.70;100258.53;5110364;28;20112;-62
2022/03/03 08:30:30;;;;;;;21.98;13.15;;;;;;;5.07;48.54;100252.25;5111394;28;20566;-62
2022/03/03 08:33:05;;;;;;;21.20;12.40;;;;;;;5.14;48.54;100263.38;5110433;28;20162;-64
2022/03/03 08:35:39;;;;;;;22.90;13.30;;;;;;;5.20;48.13;100266.69;5110303;28;20480;-62
2022/03/03 08:38:10;;;;;;;23.30;14.43;;;;;;;5.26;48.09;100265.69;5111576;28;20048;-61
2022/03/03 08:40:36;;;;;;;21.95;14.15;;;;;;;5.30;48.35;100269.91;5110119;28;20112;-61
2022/03/03 08:43:06;;;;;;;24.40;15.55;;;;;;;5.33;48.13;100277.69;5111423;28;20105;-62
2022/03/03 08:45:34;;;;;;;26.90;15.65;;;;;;;5.36;48.13;100268.91;5110652;28;20056;-62
2022/03/03 08:48:10;;;;;;;25.42;14.57;;;;;;;5.38;48.05;100272.31;5109836;28;20056;-61
2022/03/03 08:50:40;;;;;;;23.77;14.73;;;;;;;5.40;47.86;100272.28;5109887;28;20055;-63
2022/03/03 08:53:08;;;;;;;22.60;14.98;;;;;;;5.41;48.17;100269.63;5111162;28;20071;-64
2022/03/03 08:55:37;;;;;;;23.05;14.93;;;;;;;5.44;48.34;100268.69;5109823;28;20108;-64
2022/03/03 08:58:06;;;;;;;23.65;14.40;;;;;;;5.44;48.22;100273.91;5110871;28;20073;-61
2022/03/03 09:00:33;;;;;;;23.08;14.13;;;;;;;5.47;48.27;100266.84;5110931;28;20077;-61
2022/03/03 09:03:00;;;;;;;21.33;14.27;;;;;;;5.52;48.23;100261.50;5109739;28;20048;-63
2022/03/03 09:05:28;;;;;;;23.52;13.38;;;;;;;5.57;48.21;100261.38;5111153;28;20100;-63
2022/03/03 09:07:55;;;;;;;22.40;13.85;;;;;;;5.61;48.29;100260.41;5110767;28;20059;-62
2022/03/03 09:10:22;;;;;;;19.90;13.38;;;;;;;5.67;48.20;100257.59;5110611;28;20553;-63
2022/03/03 09:12:48;;;;;;;21.50;14.18;;;;;;;5.75;48.13;100262.59;5110813;28;20047;-62
2022/03/03 09:15:15;;;;;;;22.58;14.30;;;;;;;5.82;48.11;100251.09;5110391;28;20109;-61
2022/03/03 09:17:43;;;;;;;21.67;12.68;;;;;;;5.92;48.38;100250.81;5110873;28;20047;-62
2022/03/03 09:20:13;;;;;;;23.85;13.70;;;;;;;6.01;48.13;100255.75;5109577;28;20047;-62
2022/03/03 09:22:41;;;;;;;23.98;12.95;;;;;;;6.10;48.04;100250.28;5111048;28;20100;-63
2022/03/03 09:25:09;;;;;;;22.23;13.98;;;;;;;6.21;48.15;100249.94;5109759;28;20055;-61
2022/03/03 09:27:36;;;;;;;19.98;12.82;;;;;;;6.31;48.17;100250.53;5110786;28;20074;-62
2022/03/03 09:30:07;;;;;;;25.10;13.80;;;;;;;6.40;48.38;100244.16;5110583;28;20107;-61
2022/03/03 09:32:34;;;;;;;19.67;13.50;;;;;;;6.51;47.75;100236.81;5111039;28;20414;-62
2022/03/03 09:35:02;;;;;;;20.55;13.43;;;;;;;6.61;47.91;100241.72;5110209;28;20043;-62
2022/03/03 09:37:29;;;;;;;19.33;13.00;;;;;;;6.71;47.84;100231.84;5110867;28;20466;-62
2022/03/03 09:39:55;;;;;;;19.23;13.30;;;;;;;6.81;47.72;100230.63;5110813;28;20048;-63
2022/03/03 09:42:22;;;;;;;20.75;12.52;;;;;;;6.93;47.59;100233.72;5110471;28;20089;-62
2022/03/03 09:44:49;;;;;;;20.08;12.55;;;;;;;7.02;47.53;100236.88;5110252;28;20442;-62
2022/03/03 09:47:17;;;;;;;19.55;12.73;;;;;;;7.14;46.96;100232.97;5110732;28;20047;-63
2022/03/03 09:49:44;;;;;;;17.92;11.88;;;;;;;7.26;46.93;100236.09;5110478;28;20048;-62
2022/03/03 09:52:12;;;;;;;18.08;12.20;;;;;;;7.35;47.20;100232.28;5110617;28;20059;-64
2022/03/03 09:54:40;;;;;;;20.80;12.52;;;;;;;7.46;47.15;100226.66;5109799;28;20044;-61
2022/03/03 09:57:07;;;;;;;17.15;12.20;;;;;;;7.56;47.27;100228.03;5113190;28;20055;-61
2022/03/03 09:59:33;;;;;;;17.83;11.70;;;;;;;7.67;47.27;100231.09;5114673;28;20077;-61
2022/03/03 10:02:05;;;;;;;17.80;11.13;;;;;;;7.76;46.47;100231.66;5114382;28;20082;-61
2022/03/03 10:04:33;;;;;;;17.58;11.90;;;;;;;7.89;47.15;100227.66;5112954;28;20321;-61
2022/03/03 10:07:08;;;;;;;16.83;11.23;;;;;;;7.99;46.78;100235.19;5114240;28;20097;-63
2022/03/03 10:09:59;;;;;;;16.30;11.25;;;;;;;8.13;46.40;100234.63;5114234;28;20067;-64
2022/03/03 10:12:40;;;;;;;17.25;10.77;;;;;;;8.24;45.87;100224.59;5114031;28;20484;-64
2022/03/03 10:15:12;;;;;;;17.30;11.10;;;;;;;8.39;45.83;100231.00;5113840;28;20047;-61
2022/03/03 10:17:38;;;;;;;16.77;11.40;;;;;;;8.53;46.55;100234.84;5114035;28;20097;-64
2022/03/03 10:20:07;;;;;;;17.20;10.98;;;;;;;8.65;46.17;100236.97;5114073;28;20054;-62
2022/03/03 10:22:41;;;;;;;14.43;10.40;;;;;;;8.76;45.52;100233.91;5114070;28;20094;-63
2022/03/03 10:25:09;;;;;;;14.80;11.00;;;;;;;8.92;45.73;100234.13;5113830;28;20056;-63
2022/03/03 10:27:36;;;;;;;15.60;10.20;;;;;;;9.05;45.62;100237.06;5112804;28;20044;-61
2022/03/03 10:30:06;;;;;;;15.68;10.85;;;;;;;9.18;45.40;100236.53;5113699;28;20315;-65
2022/03/03 10:32:36;;;;;;;16.00;11.13;;;;;;;9.30;45.53;100236.00;5113713;28;20564;-64
2022/03/03 10:35:17;;;;;;;15.68;10.60;;;;;;;9.40;44.27;100246.97;5113646;28;20070;-62
2022/03/03 10:37:46;;;;;;;14.25;10.88;;;;;;;9.54;45.10;100241.09;5113819;28;20051;-62
2022/03/03 10:40:15;;;;;;;12.82;10.13;;;;;;;9.67;44.96;100246.63;5112424;28;20078;-61
2022/03/03 10:42:48;;;;;;;13.82;9.88;;;;;;;9.81;44.72;100245.16;5112148;28;20048;-61
2022/03/03 10:45:18;;;;;;;17.08;11.27;;;;;;;9.93;44.63;100239.34;5113726;28;20232;-62
2022/03/03 10:47:59;;;;;;;17.35;10.88;;;;;;;10.06;43.92;100244.03;5113913;28;20052;-62
2022/03/03 10:50:26;;;;;;;16.63;10.73;;;;;;;10.23;44.55;100246.72;5112209;28;20544;-63
2022/03/03 10:52:53;;;;;;;14.00;10.02;;;;;;;10.37;44.42;100247.81;5113657;28;20044;-62
2022/03/03 10:55:20;;;;;;;14.38;11.13;;;;;;;10.49;44.34;100249.88;5112994;28;20497;-62
2022/03/03 10:57:56;;;;;;;13.18;10.07;;;;;;;10.63;44.00;100245.72;5113670;28;20063;-62
2022/03/03 11:00:25;;;;;;;17.00;10.80;;;;;;;10.75;43.50;100249.53;5113631;28;20521;-62
2022/03/03 11:02:55;;;;;;;14.80;10.45;;;;;;;10.86;43.65;100243.72;5113264;28;20052;-63
2022/03/03 11:05:24;;;;;;;19.77;10.75;;;;;;;10.97;43.27;100249.31;5112756;28;20056;-64
2022/03/03 11:07:58;;;;;;;14.88;10.30;;;;;;;11.07;43.40;100250.53;5112574;28;20080;-63
2022/03/03 11:10:29;;;;;;;14.63;9.48;;;;;;;11.18;42.99;100243.88;5112940;28;20044;-62
2022/03/03 11:12:56;;;;;;;14.20;9.60;;;;;;;11.29;42.80;100235.41;5113110;28;20070;-64
2022/03/03 11:15:25;;;;;;;12.50;10.02;;;;;;;11.40;42.49;100238.31;5112175;28;20407;-63
2022/03/03 11:17:53;;;;;;;13.85;9.82;;;;;;;11.51;42.43;100229.84;5112914;28;20047;-62
2022/03/03 11:20:21;;;;;;;15.02;9.82;;;;;;;11.60;42.53;100233.78;5112656;28;20048;-64
2022/03/03 11:22:53;;;;;;;12.35;9.10;;;;;;;11.68;41.71;100231.59;5112739;28;20097;-62
2022/03/03 11:25:35;;;;;;;13.88;10.05;;;;;;;11.81;40.49;100226.47;5112533;28;20048;-63